Birch Bay, Washington
Current Conditions -  °F | °C
As of 10:53 AM on Friday 31 Oct 2014 (Local Time) from KBLI Reporting Station
Light Rain Light Rain  
Wind Chill: 51°   Ceiling: 4400
Heat Index: 51°   Visibility: 3mi
Dew Point: 49°   Wind: 3mph
Humidity: 92%   Direction: 60°ENE
Pressure: 29.75"   Gusts: NA
Location:  48.9504°N, 122.711°W
Report Text: KBLI 311753Z 06003KT 3SM -RA BR SCT003 BKN044 OVC050 11/09 A2975 RMK AO2 SLP081 P0008 60032 T01060094 10106 20100 53011
Loading
Personal Weather Stations






























Interactive Weather Map
Tropical Storm Tracking
New forecast layout! Learn more

10-Day Weather Forecast

Advertisements
Track Severe Weather on mobile